createdAt,value
2023-08-20T00:01:45.207Z,101878.56
2023-08-20T00:04:16.240Z,101886.44
2023-08-20T00:06:47.487Z,101889.56
2023-08-20T00:09:16.734Z,101899.78
2023-08-20T00:11:45.820Z,101901.31
2023-08-20T00:14:19.349Z,101903.91
2023-08-20T00:16:49.186Z,101903.19
2023-08-20T00:19:18.889Z,101906.00
2023-08-20T00:21:49.462Z,101914.25
2023-08-20T00:24:19.117Z,101923.41
2023-08-20T00:26:48.815Z,101917.97
2023-08-20T00:29:18.009Z,101924.69
2023-08-20T00:31:47.561Z,101935.88
2023-08-20T00:34:17.530Z,101937.16
2023-08-20T00:36:48.078Z,101940.25
2023-08-20T00:39:17.388Z,101944.19
2023-08-20T00:41:46.705Z,101937.38
2023-08-20T00:44:16.000Z,101935.88
2023-08-20T00:46:45.193Z,101943.00
2023-08-20T00:49:15.532Z,101938.00
2023-08-20T00:51:45.130Z,101941.91
2023-08-20T00:54:16.109Z,101931.16
2023-08-20T00:56:46.286Z,101931.44
2023-08-20T00:59:15.674Z,101930.78
2023-08-20T01:01:45.046Z,101940.97
2023-08-20T01:04:14.265Z,101938.16
2023-08-20T01:06:53.051Z,101938.75
2023-08-20T01:09:32.179Z,101936.81
2023-08-20T01:12:04.677Z,101931.94
2023-08-20T01:14:33.812Z,101930.97
2023-08-20T01:17:03.042Z,101937.56
2023-08-20T01:19:32.459Z,101926.53
2023-08-20T01:22:20.169Z,101934.78
2023-08-20T01:25:05.938Z,101932.00
2023-08-20T01:27:46.268Z,101935.63
2023-08-20T01:30:17.808Z,101938.16
2023-08-20T01:32:48.346Z,101941.22
2023-08-20T01:35:19.538Z,101942.34
2023-08-20T01:37:48.684Z,101936.88
2023-08-20T01:40:17.985Z,101939.41
2023-08-20T01:42:47.097Z,101948.63
2023-08-20T01:45:19.390Z,101943.16
2023-08-20T01:47:50.794Z,101946.53
2023-08-20T01:50:20.151Z,101944.16
2023-08-20T01:52:49.370Z,101946.69
2023-08-20T01:55:18.717Z,101943.59
2023-08-20T01:57:47.788Z,101943.16
2023-08-20T02:00:18.542Z,101944.84
2023-08-20T02:02:47.617Z,101940.97
2023-08-20T02:05:16.999Z,101946.09
2023-08-20T02:07:46.071Z,101957.28
2023-08-20T02:10:15.342Z,101946.69
2023-08-20T02:12:45.517Z,101952.66
2023-08-20T02:15:14.627Z,101946.41
2023-08-20T02:17:45.176Z,101952.66
2023-08-20T02:20:14.438Z,101955.31
2023-08-20T02:22:43.583Z,101955.88
2023-08-20T02:25:12.677Z,101958.50
2023-08-20T02:27:41.753Z,101960.06
2023-08-20T02:30:14.455Z,101960.31
2023-08-20T02:32:44.952Z,101954.19
2023-08-20T02:35:16.620Z,101957.81
2023-08-20T02:37:45.752Z,101959.22
2023-08-20T02:40:15.485Z,101960.31
2023-08-20T02:42:44.603Z,101961.56
2023-08-20T02:45:13.947Z,101962.28
2023-08-20T02:47:44.398Z,101953.06
2023-08-20T02:50:13.528Z,101959.63
2023-08-20T02:52:43.597Z,101955.44
2023-08-20T02:55:12.930Z,101950.69
2023-08-20T02:57:42.138Z,101952.09
2023-08-20T03:00:14.809Z,101950.84
2023-08-20T03:02:45.497Z,101945.84
2023-08-20T03:05:15.423Z,101937.47
2023-08-20T03:07:44.814Z,101940.56
2023-08-20T03:10:14.083Z,101953.78
2023-08-20T03:12:43.515Z,101948.50
2023-08-20T03:15:12.921Z,101957.66
2023-08-20T03:17:42.158Z,101951.09
2023-08-20T03:20:13.854Z,101966.56
2023-08-20T03:22:43.112Z,101968.53
2023-08-20T03:25:12.258Z,101978.72
2023-08-20T03:27:43.383Z,101968.38
2023-08-20T03:30:13.188Z,101971.75
2023-08-20T03:32:42.439Z,101967.13
2023-08-20T03:35:13.090Z,101977.72
2023-08-20T03:37:42.649Z,101975.22
2023-08-20T03:40:12.406Z,101964.78
2023-08-20T03:42:41.530Z,101972.00
2023-08-20T03:45:10.945Z,101977.84
2023-08-20T03:47:40.169Z,101965.88
2023-08-20T03:50:09.585Z,101976.28
2023-08-20T03:52:40.587Z,101984.06
2023-08-20T03:55:10.997Z,101987.72
2023-08-20T03:57:40.230Z,101991.84
2023-08-20T04:00:11.097Z,101995.94
2023-08-20T04:02:48.183Z,102003.28
2023-08-20T04:05:17.444Z,102000.50
2023-08-20T04:07:48.076Z,101999.31
2023-08-20T04:10:17.309Z,102008.53
2023-08-20T04:12:46.392Z,102008.22
2023-08-20T04:15:15.530Z,102004.09
2023-08-20T04:17:44.660Z,102004.50
2023-08-20T04:20:13.852Z,102006.19
2023-08-20T04:22:43.345Z,102013.97
2023-08-20T04:25:14.000Z,102017.06
2023-08-20T04:27:43.260Z,102007.03
2023-08-20T04:30:13.538Z,102021.28
2023-08-20T04:32:42.965Z,102018.47
2023-08-20T04:35:12.388Z,102018.75
2023-08-20T04:37:42.981Z,102014.03
2023-08-20T04:40:16.451Z,102021.09
2023-08-20T04:42:47.076Z,102010.38
2023-08-20T04:45:19.101Z,102011.78
2023-08-20T04:47:48.860Z,102020.44
2023-08-20T04:50:21.450Z,102023.19
2023-08-20T04:52:51.184Z,102011.94
2023-08-20T04:55:21.839Z,102011.09
2023-08-20T04:57:52.106Z,102011.09
2023-08-20T05:00:21.710Z,102007.72
2023-08-20T05:02:57.699Z,102003.31
2023-08-20T05:05:26.944Z,101998.03
2023-08-20T05:07:56.023Z,101997.22
2023-08-20T05:10:26.574Z,101992.50
2023-08-20T05:12:55.697Z,101992.16
2023-08-20T05:15:24.838Z,101992.78
2023-08-20T05:17:54.012Z,102007.97
2023-08-20T05:20:23.280Z,101999.19
2023-08-20T05:22:52.404Z,101993.91
2023-08-20T05:25:21.512Z,102002.84
2023-08-20T05:27:53.821Z,101991.41
2023-08-20T05:30:23.024Z,101989.19
2023-08-20T05:32:52.164Z,101982.63
2023-08-20T05:35:21.259Z,101972.59
2023-08-20T05:37:51.801Z,101975.78
2023-08-20T05:40:21.808Z,101975.66
2023-08-20T05:42:52.646Z,101974.25
2023-08-20T05:45:22.607Z,101972.59
2023-08-20T05:47:53.400Z,101973.44
2023-08-20T05:50:24.807Z,101973.75
2023-08-20T05:52:54.241Z,101982.41
2023-08-20T05:55:24.662Z,101986.19
2023-08-20T05:57:55.676Z,101995.84
2023-08-20T06:00:24.766Z,101984.72
2023-08-20T06:02:53.923Z,101993.59
2023-08-20T06:05:23.068Z,101976.47
2023-08-20T06:07:52.153Z,101972.41
2023-08-20T06:10:21.227Z,101962.06
2023-08-20T06:12:50.301Z,101954.31
2023-08-20T06:15:20.726Z,101947.47
2023-08-20T06:17:49.816Z,101948.53
2023-08-20T06:20:19.800Z,101943.41
2023-08-20T06:22:49.149Z,101957.19
2023-08-20T06:25:18.639Z,101959.53
2023-08-20T06:27:47.752Z,101949.66
2023-08-20T06:30:16.952Z,101944.41
2023-08-20T06:32:47.501Z,101939.50
2023-08-20T06:35:16.636Z,101941.78
2023-08-20T06:37:45.752Z,101936.41
2023-08-20T06:40:15.907Z,101938.66
2023-08-20T06:42:44.991Z,101943.31
2023-08-20T06:45:14.064Z,101951.38
2023-08-20T06:47:43.174Z,101956.59
2023-08-20T06:50:13.943Z,101967.28
2023-08-20T06:52:43.091Z,101984.53
2023-08-20T06:55:12.331Z,101986.06
2023-08-20T06:57:41.412Z,101992.66
2023-08-20T07:00:10.968Z,101999.81
2023-08-20T07:02:40.075Z,102009.75
2023-08-20T07:05:10.918Z,101999.53
2023-08-20T07:07:41.453Z,101996.63
2023-08-20T07:10:11.582Z,102000.81
2023-08-20T07:12:40.750Z,101994.19
2023-08-20T07:15:10.829Z,101995.28
2023-08-20T07:17:40.637Z,101989.00
2023-08-20T07:20:10.524Z,101986.66
2023-08-20T07:22:40.946Z,101984.94
2023-08-20T07:25:10.320Z,101972.25
2023-08-20T07:27:39.667Z,101965.53
2023-08-20T07:30:10.134Z,101969.47
2023-08-20T07:32:39.214Z,101965.09
2023-08-20T07:35:12.055Z,101958.00
2023-08-20T07:37:43.457Z,101960.31
2023-08-20T07:40:16.501Z,101963.28
2023-08-20T07:42:46.014Z,101962.59
2023-08-20T07:45:15.280Z,101962.88
2023-08-20T07:47:44.414Z,101967.22
2023-08-20T07:50:13.482Z,101970.78
2023-08-20T07:52:43.863Z,101974.94
2023-08-20T07:55:12.925Z,101976.78
2023-08-20T07:57:42.019Z,101979.91
2023-08-20T08:00:12.544Z,101979.13
2023-08-20T08:02:41.585Z,101976.94
2023-08-20T08:05:11.137Z,101978.16
2023-08-20T08:07:40.179Z,101988.59
2023-08-20T08:10:11.296Z,101982.72
2023-08-20T08:12:40.376Z,101980.53
2023-08-20T08:15:09.702Z,101977.03
2023-08-20T08:17:39.042Z,101983.78
2023-08-20T08:20:09.211Z,101987.03
2023-08-20T08:22:38.325Z,101992.16
2023-08-20T08:25:07.691Z,101990.13
2023-08-20T08:27:47.192Z,101991.09
2023-08-20T08:30:27.317Z,101996.97
2023-08-20T08:32:56.451Z,101996.53
2023-08-20T08:35:25.636Z,101995.78
2023-08-20T08:37:54.741Z,101997.72
2023-08-20T08:40:24.966Z,101999.00
2023-08-20T08:42:55.993Z,101995.19
2023-08-20T08:45:25.575Z,102002.22
2023-08-20T08:47:56.693Z,102008.53
2023-08-20T08:50:26.363Z,102006.41
2023-08-20T08:52:56.999Z,102002.31
2023-08-20T08:55:26.445Z,102007.63
2023-08-20T08:57:57.219Z,102012.22
2023-08-20T09:00:26.433Z,102013.63
2023-08-20T09:02:55.534Z,102018.13
2023-08-20T09:05:24.714Z,102003.47
2023-08-20T09:07:58.972Z,102004.09
2023-08-20T09:10:30.772Z,102011.94
2023-08-20T09:13:01.226Z,102012.03
2023-08-20T09:15:36.532Z,102012.69
2023-08-20T09:18:06.319Z,102011.03
2023-08-20T09:20:38.906Z,102012.69
2023-08-20T09:23:14.709Z,102010.75
2023-08-20T09:25:44.903Z,102010.72
2023-08-20T09:28:16.042Z,102015.19
2023-08-20T09:30:58.300Z,102020.75
2023-08-20T09:33:27.741Z,102011.75
2023-08-20T09:35:57.175Z,102008.63
2023-08-20T09:38:26.844Z,102013.69
2023-08-20T09:40:57.476Z,102013.56
2023-08-20T09:43:31.925Z,102009.03
2023-08-20T09:46:04.413Z,102014.22
2023-08-20T09:48:37.222Z,102011.13
2023-08-20T09:51:12.381Z,102013.38
2023-08-20T09:53:47.498Z,101993.78
2023-08-20T09:56:24.096Z,102007.00
2023-08-20T09:58:55.846Z,101998.09
2023-08-20T10:01:25.618Z,101998.34
2023-08-20T10:03:55.100Z,101997.00
2023-08-20T10:06:25.434Z,101993.97
2023-08-20T10:08:55.996Z,101992.84
2023-08-20T10:11:25.068Z,101997.94
2023-08-20T10:13:56.707Z,101989.31
2023-08-20T10:16:29.407Z,101992.47
2023-08-20T10:19:03.594Z,101992.19
2023-08-20T10:21:32.756Z,101999.53
2023-08-20T10:24:06.357Z,101990.75
2023-08-20T10:26:36.979Z,101985.09
2023-08-20T10:29:38.529Z,101990.31
2023-08-20T10:32:10.895Z,101981.44
2023-08-20T10:34:41.737Z,101984.59
2023-08-20T10:37:15.285Z,101983.25
2023-08-20T10:39:44.747Z,101981.75
2023-08-20T10:42:28.639Z,101986.47
2023-08-20T10:45:05.669Z,101984.56
2023-08-20T10:47:39.344Z,101981.22
2023-08-20T10:50:12.509Z,101977.50
2023-08-20T10:52:42.315Z,101978.06
2023-08-20T10:55:11.534Z,101982.66
2023-08-20T10:57:40.611Z,101974.81
2023-08-20T11:00:17.577Z,101983.06
2023-08-20T11:02:46.785Z,101974.16
2023-08-20T11:05:20.121Z,101986.28
2023-08-20T11:07:49.969Z,101977.19
2023-08-20T11:10:20.031Z,101979.75
2023-08-20T11:12:49.401Z,102001.28
2023-08-20T11:15:21.923Z,101987.78
2023-08-20T11:17:51.801Z,101982.47
2023-08-20T11:20:22.927Z,101992.81
2023-08-20T11:22:52.421Z,101993.25
2023-08-20T11:25:22.161Z,101993.44
2023-08-20T11:27:52.844Z,101990.25
2023-08-20T11:30:24.694Z,101992.41
2023-08-20T11:32:54.674Z,101992.94
2023-08-20T11:35:24.698Z,101991.97
2023-08-20T11:37:54.683Z,101997.34
2023-08-20T11:40:24.087Z,101996.31
2023-08-20T11:42:53.228Z,101994.91
2023-08-20T11:45:23.699Z,101987.72
2023-08-20T11:47:59.626Z,101990.34
2023-08-20T11:50:28.811Z,101991.13
2023-08-20T11:53:02.127Z,101995.41
2023-08-20T11:55:32.841Z,101990.97
2023-08-20T11:58:01.882Z,101992.16
2023-08-20T12:00:33.883Z,101988.94
2023-08-20T12:03:05.180Z,101994.44
2023-08-20T12:05:34.339Z,101991.91
2023-08-20T12:08:05.341Z,101976.44
2023-08-20T12:10:35.992Z,101988.41
2023-08-20T12:13:05.481Z,101986.88
2023-08-20T12:15:35.978Z,101990.94
2023-08-20T12:18:06.828Z,101988.06
2023-08-20T12:20:37.596Z,101990.53
2023-08-20T12:23:08.302Z,101982.00
2023-08-20T12:25:38.451Z,101984.91
2023-08-20T12:28:08.828Z,101985.16
2023-08-20T12:30:40.343Z,101991.19
2023-08-20T12:33:09.489Z,101974.97
2023-08-20T12:35:38.714Z,101983.84
2023-08-20T12:38:08.774Z,101979.97
2023-08-20T12:40:37.893Z,101978.88
2023-08-20T12:43:07.098Z,101980.38
2023-08-20T12:45:36.154Z,101985.09
2023-08-20T12:48:08.322Z,101980.91
2023-08-20T12:50:37.433Z,101972.63
2023-08-20T12:53:06.704Z,101969.63
2023-08-20T12:55:35.852Z,101967.38
2023-08-20T12:58:05.088Z,101960.84
2023-08-20T13:00:34.124Z,101969.00
2023-08-20T13:03:05.473Z,101963.53
2023-08-20T13:05:35.436Z,101972.31
2023-08-20T13:08:05.049Z,101958.75
2023-08-20T13:10:34.786Z,101966.47
2023-08-20T13:13:05.023Z,101963.41
2023-08-20T13:15:35.604Z,101962.38
2023-08-20T13:18:09.833Z,101972.91
2023-08-20T13:20:39.052Z,101966.06
2023-08-20T13:23:08.215Z,101966.53
2023-08-20T13:25:37.417Z,101965.19
2023-08-20T13:28:06.900Z,101970.34
2023-08-20T13:30:36.028Z,101964.22
2023-08-20T13:33:06.975Z,101965.38
2023-08-20T13:35:36.361Z,101962.38
2023-08-20T13:38:06.514Z,101957.88
2023-08-20T13:40:35.655Z,101953.06
2023-08-20T13:43:04.824Z,101963.06
2023-08-20T13:45:34.398Z,101962.69
2023-08-20T13:48:03.592Z,101961.75
2023-08-20T13:50:34.203Z,101961.34
2023-08-20T13:53:03.713Z,101957.66
2023-08-20T13:55:32.883Z,101958.25
2023-08-20T13:58:01.988Z,101966.50
2023-08-20T14:00:31.091Z,101965.84
2023-08-20T14:03:00.594Z,101964.09
2023-08-20T14:05:30.179Z,101957.13
2023-08-20T14:08:00.612Z,101957.81
2023-08-20T14:10:29.648Z,101958.19
2023-08-20T14:12:58.753Z,101955.94
2023-08-20T14:15:27.999Z,101950.63
2023-08-20T14:17:57.156Z,101949.88
2023-08-20T14:20:26.327Z,101950.19
2023-08-20T14:22:55.516Z,101954.38
2023-08-20T14:25:26.104Z,101949.06
2023-08-20T14:27:55.167Z,101945.59
2023-08-20T14:30:24.226Z,101938.16
2023-08-20T14:32:53.953Z,101941.66
2023-08-20T14:35:23.364Z,101940.22
2023-08-20T14:37:55.261Z,101936.25
2023-08-20T14:40:25.971Z,101934.25
2023-08-20T14:42:55.031Z,101936.88
2023-08-20T14:45:24.114Z,101930.94
2023-08-20T14:47:53.199Z,101929.47
2023-08-20T14:50:22.276Z,101922.44
2023-08-20T14:52:53.088Z,101915.78
2023-08-20T14:55:22.438Z,101917.47
2023-08-20T14:57:52.966Z,101925.50
2023-08-20T15:00:23.990Z,101924.19
2023-08-20T15:02:53.499Z,101921.88
2023-08-20T15:05:23.206Z,101926.03
2023-08-20T15:07:52.509Z,101916.47
2023-08-20T15:10:21.870Z,101917.00
2023-08-20T15:12:52.426Z,101923.50
2023-08-20T15:15:22.162Z,101911.66
2023-08-20T15:17:52.719Z,101923.03
2023-08-20T15:20:21.895Z,101923.34
2023-08-20T15:22:50.957Z,101923.41
2023-08-20T15:25:20.190Z,101917.00
2023-08-20T15:27:49.272Z,101921.69
2023-08-20T15:30:26.043Z,101922.50
2023-08-20T15:32:55.111Z,101915.75
2023-08-20T15:35:24.424Z,101924.09
2023-08-20T15:37:54.530Z,101918.66
2023-08-20T15:40:23.659Z,101919.72
2023-08-20T15:42:52.728Z,101915.09
2023-08-20T15:45:23.157Z,101922.28
2023-08-20T15:47:52.453Z,101925.50
2023-08-20T15:50:21.508Z,101921.31
2023-08-20T15:52:51.092Z,101918.31
2023-08-20T15:55:20.282Z,101913.31
2023-08-20T15:57:49.615Z,101904.22
2023-08-20T16:00:20.427Z,101903.81
2023-08-20T16:02:50.941Z,101914.19
2023-08-20T16:05:20.099Z,101909.31
2023-08-20T16:07:49.267Z,101917.16
2023-08-20T16:10:18.596Z,101907.88
2023-08-20T16:12:47.657Z,101904.19
2023-08-20T16:15:16.806Z,101905.25
2023-08-20T16:17:46.075Z,101893.41
2023-08-20T16:20:16.474Z,101904.41
2023-08-20T16:22:46.205Z,101896.50
2023-08-20T16:25:15.293Z,101895.69
2023-08-20T16:27:44.682Z,101908.53
2023-08-20T16:30:14.245Z,101897.13
2023-08-20T16:32:43.369Z,101899.16
2023-08-20T16:35:12.585Z,101906.97
2023-08-20T16:37:43.267Z,101901.31
2023-08-20T16:40:22.044Z,101897.28
2023-08-20T16:42:51.171Z,101890.97
2023-08-20T16:45:20.488Z,101906.09
2023-08-20T16:47:49.627Z,101899.91
2023-08-20T16:50:19.494Z,101902.59
2023-08-20T16:52:49.966Z,101896.94
2023-08-20T16:55:19.181Z,101901.94
2023-08-20T16:57:49.397Z,101894.84
2023-08-20T17:00:20.104Z,101888.06
2023-08-20T17:02:49.543Z,101893.09
2023-08-20T17:05:19.437Z,101891.44
2023-08-20T17:07:49.811Z,101887.09
2023-08-20T17:10:19.527Z,101895.84
2023-08-20T17:12:49.167Z,101891.34
2023-08-20T17:15:20.681Z,101890.72
2023-08-20T17:17:49.365Z,101889.06
2023-08-20T17:20:18.699Z,101882.34
2023-08-20T17:22:49.153Z,101889.56
2023-08-20T17:25:20.643Z,101896.66
2023-08-20T17:27:50.031Z,101883.13
2023-08-20T17:30:19.204Z,101887.41
2023-08-20T17:32:48.313Z,101896.69
2023-08-20T17:35:17.427Z,101886.38
2023-08-20T17:37:47.322Z,101889.94
2023-08-20T17:40:17.919Z,101883.13
2023-08-20T17:42:46.997Z,101885.81
2023-08-20T17:45:16.050Z,101893.22
2023-08-20T17:47:45.518Z,101893.38
2023-08-20T17:50:15.283Z,101908.84
2023-08-20T17:52:44.340Z,101908.03
2023-08-20T17:55:13.481Z,101916.19
2023-08-20T17:57:44.553Z,101920.72
2023-08-20T18:00:14.673Z,101923.03
2023-08-20T18:02:44.116Z,101917.94
2023-08-20T18:05:13.629Z,101914.63
2023-08-20T18:07:42.912Z,101924.09
2023-08-20T18:10:12.439Z,101916.13
2023-08-20T18:12:42.978Z,101920.19
2023-08-20T18:15:12.426Z,101920.81
2023-08-20T18:17:41.622Z,101922.84
2023-08-20T18:20:15.182Z,101921.16
2023-08-20T18:22:44.329Z,101923.00
2023-08-20T18:25:13.445Z,101920.72
2023-08-20T18:27:45.443Z,101924.31
2023-08-20T18:30:14.913Z,101922.66
2023-08-20T18:32:44.168Z,101930.72
2023-08-20T18:35:13.661Z,101925.53
2023-08-20T18:37:42.800Z,101932.88
2023-08-20T18:40:12.463Z,101931.56
2023-08-20T18:42:43.315Z,101930.94
2023-08-20T18:45:12.912Z,101936.28
2023-08-20T18:47:42.147Z,101941.44
2023-08-20T18:50:12.335Z,101948.44
2023-08-20T18:52:41.545Z,101945.41
2023-08-20T18:55:10.981Z,101955.25
2023-08-20T18:57:40.038Z,101957.09
2023-08-20T19:00:13.701Z,101957.59
2023-08-20T19:02:43.006Z,101961.25
2023-08-20T19:05:12.970Z,101958.47
2023-08-20T19:07:44.013Z,101963.59
2023-08-20T19:10:13.088Z,101959.63
2023-08-20T19:12:42.311Z,101955.97
2023-08-20T19:15:13.081Z,101954.91
2023-08-20T19:17:42.398Z,101951.75
2023-08-20T19:20:12.080Z,101965.66
2023-08-20T19:22:42.271Z,101969.69
2023-08-20T19:25:11.775Z,101975.41
2023-08-20T19:27:41.022Z,101969.75
2023-08-20T19:30:12.781Z,101968.75
2023-08-20T19:32:41.979Z,101972.75
2023-08-20T19:35:15.524Z,101975.44
2023-08-20T19:37:49.528Z,101977.78
2023-08-20T19:40:18.609Z,101977.97
2023-08-20T19:42:47.668Z,101981.47
2023-08-20T19:45:18.374Z,101989.00
2023-08-20T19:47:47.484Z,101990.31
2023-08-20T19:50:16.621Z,101988.31
2023-08-20T19:52:45.690Z,101984.31
2023-08-20T19:55:14.916Z,101990.81
2023-08-20T19:57:44.806Z,101989.78
2023-08-20T20:00:16.467Z,101993.06
2023-08-20T20:02:53.211Z,101989.91
2023-08-20T20:05:23.356Z,101990.25
2023-08-20T20:07:52.504Z,101995.41
2023-08-20T20:10:21.742Z,101994.38
2023-08-20T20:12:50.833Z,101991.69
2023-08-20T20:15:20.187Z,101995.19
2023-08-20T20:17:51.097Z,102001.69
2023-08-20T20:20:22.886Z,101997.81
2023-08-20T20:22:52.026Z,102006.13
2023-08-20T20:25:23.661Z,102012.72
2023-08-20T20:27:53.801Z,102018.63
2023-08-20T20:30:22.969Z,102015.81
2023-08-20T20:32:53.422Z,102021.88
2023-08-20T20:35:22.524Z,102020.75
2023-08-20T20:37:51.580Z,102019.19
2023-08-20T20:40:20.938Z,102027.84
2023-08-20T20:42:49.986Z,102029.94
2023-08-20T20:45:19.301Z,102033.91
2023-08-20T20:47:48.472Z,102037.03
2023-08-20T20:50:19.462Z,102048.59
2023-08-20T20:52:48.528Z,102044.97
2023-08-20T20:55:18.002Z,102055.53
2023-08-20T20:57:47.284Z,102048.19
2023-08-20T21:00:17.648Z,102045.63
2023-08-20T21:02:46.985Z,102045.81
2023-08-20T21:05:16.143Z,102046.19
2023-08-20T21:07:46.590Z,102043.25
2023-08-20T21:10:15.727Z,102047.53
2023-08-20T21:12:44.818Z,102039.81
2023-08-20T21:15:13.911Z,102050.19
2023-08-20T21:17:43.019Z,102049.69
2023-08-20T21:20:12.660Z,102057.97
2023-08-20T21:22:42.032Z,102059.72
2023-08-20T21:25:12.539Z,102061.50
2023-08-20T21:27:41.568Z,102051.28
2023-08-20T21:30:12.954Z,102056.44
2023-08-20T21:32:43.484Z,102051.66
2023-08-20T21:35:12.654Z,102056.91
2023-08-20T21:37:41.945Z,102059.56
2023-08-20T21:40:13.802Z,102060.97
2023-08-20T21:42:42.874Z,102061.97
2023-08-20T21:45:11.968Z,102058.69
2023-08-20T21:47:47.814Z,102063.50
2023-08-20T21:50:17.522Z,102063.72
2023-08-20T21:52:46.767Z,102069.47
2023-08-20T21:55:17.474Z,102073.84
2023-08-20T21:57:46.872Z,102079.75
2023-08-20T22:00:16.792Z,102083.81
2023-08-20T22:02:47.228Z,102086.03
2023-08-20T22:05:17.534Z,102083.28
2023-08-20T22:07:48.216Z,102084.97
2023-08-20T22:10:20.368Z,102083.91
2023-08-20T22:12:50.013Z,102082.75
2023-08-20T22:15:20.544Z,102082.47
2023-08-20T22:17:49.907Z,102084.41
2023-08-20T22:20:19.373Z,102080.06
2023-08-20T22:22:48.558Z,102080.69
2023-08-20T22:25:19.074Z,102083.22
2023-08-20T22:27:48.270Z,102083.50
2023-08-20T22:30:17.961Z,102080.44
2023-08-20T22:32:47.216Z,102090.50
2023-08-20T22:35:16.780Z,102086.88
2023-08-20T22:38:03.846Z,102077.78
2023-08-20T22:40:34.692Z,102076.03
2023-08-20T22:43:04.143Z,102088.03
2023-08-20T22:45:33.441Z,102094.19
2023-08-20T22:48:03.782Z,102087.91
2023-08-20T22:50:33.929Z,102089.84
2023-08-20T22:53:04.331Z,102083.31
2023-08-20T22:55:34.759Z,102086.69
2023-08-20T22:58:04.461Z,102094.47
2023-08-20T23:00:33.770Z,102086.97
2023-08-20T23:03:02.826Z,102090.72
2023-08-20T23:05:31.927Z,102085.84
2023-08-20T23:08:00.993Z,102088.91
2023-08-20T23:10:30.137Z,102086.13
2023-08-20T23:13:00.627Z,102088.38
2023-08-20T23:15:29.687Z,102084.88
2023-08-20T23:17:58.825Z,102088.19
2023-08-20T23:20:28.015Z,102084.28
2023-08-20T23:22:57.393Z,102078.03
2023-08-20T23:25:26.453Z,102078.47
2023-08-20T23:27:55.545Z,102079.16
2023-08-20T23:30:25.987Z,102086.53
2023-08-20T23:32:55.349Z,102081.94
2023-08-20T23:35:24.396Z,102078.47
2023-08-20T23:37:53.449Z,102079.56
2023-08-20T23:40:22.526Z,102078.88
2023-08-20T23:42:51.722Z,102069.41
2023-08-20T23:45:21.836Z,102071.63
2023-08-20T23:47:52.360Z,102072.59
2023-08-20T23:50:21.586Z,102071.34
2023-08-20T23:52:50.616Z,102070.50
2023-08-20T23:55:19.921Z,102066.34
2023-08-20T23:57:49.006Z,102062.13
